createdAt,value
2023-01-28T00:01:24.595Z,3.97
2023-01-28T00:03:53.749Z,6.13
2023-01-28T00:06:22.915Z,4.20
2023-01-28T00:08:54.774Z,4.43
2023-01-28T00:11:24.158Z,4.63
2023-01-28T00:13:53.570Z,3.47
2023-01-28T00:16:23.565Z,3.70
2023-01-28T00:18:52.641Z,5.10
2023-01-28T00:21:21.700Z,5.57
2023-01-28T00:23:55.433Z,4.37
2023-01-28T00:26:26.158Z,3.83
2023-01-28T00:28:55.263Z,3.13
2023-01-28T00:31:27.234Z,4.90
2023-01-28T00:33:58.067Z,6.40
2023-01-28T00:36:28.128Z,1.77
2023-01-28T00:39:00.070Z,3.50
2023-01-28T00:41:30.815Z,1.70
2023-01-28T00:44:00.754Z,1.67
2023-01-28T00:46:31.600Z,2.13
2023-01-28T00:49:01.493Z,3.27
2023-01-28T00:51:30.580Z,7.27
2023-01-28T00:54:00.979Z,5.30
2023-01-28T00:56:30.101Z,1.93
2023-01-28T00:58:59.162Z,3.50
2023-01-28T01:01:29.372Z,3.63
2023-01-28T01:04:02.556Z,4.60
2023-01-28T01:06:35.229Z,3.20
2023-01-28T01:09:08.680Z,3.50
2023-01-28T01:11:37.739Z,5.00
2023-01-28T01:14:06.933Z,3.20
2023-01-28T01:16:36.474Z,4.10
2023-01-28T01:19:06.065Z,5.40
2023-01-28T01:21:35.144Z,7.60
2023-01-28T01:24:05.787Z,3.30
2023-01-28T01:26:34.832Z,3.50
2023-01-28T01:29:03.903Z,2.50
2023-01-28T01:31:32.949Z,3.83
2023-01-28T01:34:02.774Z,2.40
2023-01-28T01:36:32.137Z,2.17
2023-01-28T01:39:01.151Z,3.87
2023-01-28T01:41:33.883Z,4.60
2023-01-28T01:44:04.798Z,1.97
2023-01-28T01:46:39.775Z,6.63
2023-01-28T01:49:17.037Z,3.40
2023-01-28T01:51:49.353Z,3.17
2023-01-28T01:54:19.565Z,4.23
2023-01-28T01:56:52.032Z,4.13
2023-01-28T01:59:26.735Z,9.73
2023-01-28T02:01:56.181Z,5.60
2023-01-28T02:04:29.906Z,2.60
2023-01-28T02:07:01.203Z,3.20
2023-01-28T02:09:32.371Z,1.70
2023-01-28T02:12:08.159Z,2.20
2023-01-28T02:14:41.643Z,2.93
2023-01-28T02:17:11.260Z,3.00
2023-01-28T02:19:45.278Z,1.63
2023-01-28T02:22:44.285Z,4.63
2023-01-28T02:25:59.013Z,7.03
2023-01-28T02:28:35.162Z,2.73
2023-01-28T02:31:12.498Z,2.67
2023-01-28T02:33:48.526Z,4.43
2023-01-28T02:36:25.625Z,7.37
2023-01-28T02:38:56.957Z,3.30
2023-01-28T02:41:31.129Z,3.10
2023-01-28T02:44:04.800Z,4.63
2023-01-28T02:46:55.732Z,1.97
2023-01-28T02:49:30.433Z,4.57
2023-01-28T02:52:43.090Z,2.10
2023-01-28T02:55:18.874Z,1.80
2023-01-28T02:57:59.285Z,5.23
2023-01-28T03:00:38.436Z,2.33
2023-01-28T03:03:15.337Z,2.50
2023-01-28T03:06:06.732Z,1.23
2023-01-28T03:08:58.410Z,5.07
2023-01-28T03:11:47.581Z,1.80
2023-01-28T03:14:35.966Z,2.17
2023-01-28T03:17:28.395Z,4.47
2023-01-28T03:20:15.490Z,3.70
2023-01-28T03:23:07.479Z,3.83
2023-01-28T03:25:59.060Z,3.57
2023-01-28T03:28:49.883Z,5.17
2023-01-28T03:31:39.304Z,2.83
2023-01-28T03:34:28.799Z,5.20
2023-01-28T03:36:59.591Z,1.50
2023-01-28T03:39:34.729Z,6.90
2023-01-28T03:42:08.585Z,2.70
2023-01-28T03:44:54.683Z,4.07
2023-01-28T03:47:26.086Z,3.80
2023-01-28T03:49:59.597Z,6.50
2023-01-28T03:52:32.011Z,7.93
2023-01-28T03:55:25.771Z,6.80
2023-01-28T03:57:54.878Z,4.33
2023-01-28T04:00:24.108Z,3.47
2023-01-28T04:02:53.190Z,0.97
2023-01-28T04:05:25.419Z,2.30
2023-01-28T04:07:56.800Z,3.73
2023-01-28T04:10:58.332Z,1.40
2023-01-28T04:13:31.336Z,3.90
2023-01-28T04:16:03.859Z,10.07
2023-01-28T04:18:37.558Z,5.50
2023-01-28T04:21:08.321Z,2.47
2023-01-28T04:23:37.615Z,4.20
2023-01-28T04:26:07.467Z,3.43
2023-01-28T04:28:36.852Z,1.87
2023-01-28T04:31:06.097Z,2.40
2023-01-28T04:33:58.046Z,4.40
2023-01-28T04:36:54.594Z,3.90
2023-01-28T04:39:29.099Z,3.53
2023-01-28T04:42:12.043Z,3.43
2023-01-28T04:45:16.978Z,2.87
2023-01-28T04:48:12.215Z,3.97
2023-01-28T04:50:56.598Z,1.83
2023-01-28T04:53:38.174Z,2.37
2023-01-28T04:56:25.746Z,4.10
2023-01-28T04:58:55.011Z,4.47
2023-01-28T05:01:25.611Z,1.83
2023-01-28T05:03:55.448Z,2.30
2023-01-28T05:06:27.833Z,3.20
2023-01-28T05:09:00.828Z,2.47
2023-01-28T05:11:30.239Z,4.00
2023-01-28T05:14:03.539Z,3.37
2023-01-28T05:16:40.195Z,2.63
2023-01-28T05:19:09.676Z,6.20
2023-01-28T05:21:42.469Z,6.63
2023-01-28T05:24:22.487Z,5.37
2023-01-28T05:26:51.782Z,3.67
2023-01-28T05:29:20.846Z,1.73
2023-01-28T05:31:50.495Z,4.67
2023-01-28T05:34:19.905Z,2.60
2023-01-28T05:36:48.939Z,5.07
2023-01-28T05:39:31.336Z,2.10
2023-01-28T05:42:00.592Z,1.43
2023-01-28T05:44:30.160Z,9.37
2023-01-28T05:47:14.450Z,1.93
2023-01-28T05:49:54.207Z,2.33
2023-01-28T05:52:49.307Z,5.40
2023-01-28T05:55:26.646Z,2.13
2023-01-28T05:57:56.256Z,4.67
2023-01-28T06:00:28.657Z,2.17
2023-01-28T06:02:57.967Z,4.37
2023-01-28T06:05:27.403Z,3.50
2023-01-28T06:07:56.678Z,1.73
2023-01-28T06:10:27.083Z,2.60
2023-01-28T06:12:57.254Z,2.40
2023-01-28T06:15:29.092Z,6.43
2023-01-28T06:18:16.477Z,2.63
2023-01-28T06:20:45.662Z,3.47
2023-01-28T06:23:14.802Z,5.70
2023-01-28T06:25:45.254Z,10.80
2023-01-28T06:28:16.710Z,11.90
2023-01-28T06:30:48.878Z,3.17
2023-01-28T06:33:17.896Z,10.53
2023-01-28T06:35:47.603Z,3.63
2023-01-28T06:38:16.633Z,9.10
2023-01-28T06:40:51.930Z,10.27
2023-01-28T06:43:21.059Z,6.30
2023-01-28T06:45:50.119Z,4.13
2023-01-28T06:48:19.128Z,4.47
2023-01-28T06:50:48.788Z,6.73
2023-01-28T06:53:18.857Z,2.83
2023-01-28T06:55:49.546Z,3.63
2023-01-28T06:58:18.590Z,4.77
2023-01-28T07:00:47.598Z,3.27
2023-01-28T07:03:16.866Z,5.90
2023-01-28T07:05:46.035Z,8.93
2023-01-28T07:08:15.195Z,3.37
2023-01-28T07:10:44.303Z,7.47
2023-01-28T07:13:14.728Z,7.30
2023-01-28T07:15:43.872Z,3.27
2023-01-28T07:18:12.953Z,6.27
2023-01-28T07:20:41.975Z,4.63
2023-01-28T07:23:11.036Z,5.27
2023-01-28T07:25:40.139Z,11.13
2023-01-28T07:28:09.517Z,10.70
2023-01-28T07:30:39.994Z,5.10
2023-01-28T07:33:09.139Z,4.80
2023-01-28T07:35:38.129Z,9.17
2023-01-28T07:38:07.283Z,5.13
2023-01-28T07:40:36.628Z,7.33
2023-01-28T07:43:07.171Z,8.40
2023-01-28T07:45:41.610Z,6.50
2023-01-28T07:48:14.314Z,9.33
2023-01-28T07:50:43.442Z,8.80
2023-01-28T07:53:13.764Z,8.63
2023-01-28T07:55:46.025Z,8.27
2023-01-28T07:58:15.106Z,8.57
2023-01-28T08:00:45.542Z,12.90
2023-01-28T08:03:15.880Z,10.20
2023-01-28T08:05:48.046Z,9.43
2023-01-28T08:08:17.463Z,12.63
2023-01-28T08:10:46.802Z,10.80
2023-01-28T08:13:17.373Z,15.43
2023-01-28T08:15:48.457Z,9.33
2023-01-28T08:18:18.337Z,13.20
2023-01-28T08:20:47.681Z,16.13
2023-01-28T08:23:19.293Z,20.63
2023-01-28T08:25:49.104Z,13.27
2023-01-28T08:28:19.131Z,12.50
2023-01-28T08:30:50.044Z,13.03
2023-01-28T08:33:20.810Z,15.00
2023-01-28T08:35:49.861Z,9.40
2023-01-28T08:38:20.433Z,12.90
2023-01-28T08:40:50.855Z,13.30
2023-01-28T08:43:19.898Z,14.03
2023-01-28T08:45:50.333Z,9.83
2023-01-28T08:48:20.495Z,12.33
2023-01-28T08:50:50.772Z,15.20
2023-01-28T08:53:21.177Z,14.47
2023-01-28T08:55:50.252Z,11.27
2023-01-28T08:58:20.403Z,15.23
2023-01-28T09:00:51.513Z,11.77
2023-01-28T09:03:20.646Z,13.13
2023-01-28T09:05:50.320Z,11.80
2023-01-28T09:08:19.418Z,14.17
2023-01-28T09:10:48.434Z,12.50
2023-01-28T09:13:17.907Z,14.53
2023-01-28T09:15:47.024Z,12.57
2023-01-28T09:18:17.617Z,13.53
2023-01-28T09:20:46.876Z,11.30
2023-01-28T09:23:16.611Z,11.87
2023-01-28T09:25:45.699Z,13.97
2023-01-28T09:28:14.734Z,11.00
2023-01-28T09:30:43.829Z,11.20
2023-01-28T09:33:12.952Z,13.83
2023-01-28T09:35:43.420Z,9.87
2023-01-28T09:38:12.435Z,13.53
2023-01-28T09:40:44.392Z,11.33
2023-01-28T09:43:54.565Z,12.13
2023-01-28T09:46:29.293Z,7.70
2023-01-28T09:49:03.507Z,7.23
2023-01-28T09:51:40.544Z,10.27
2023-01-28T09:54:21.596Z,6.83
2023-01-28T09:56:59.424Z,4.87
2023-01-28T09:59:29.427Z,6.97
2023-01-28T10:02:07.736Z,5.87
2023-01-28T10:04:50.886Z,5.83
2023-01-28T10:07:35.253Z,4.77
2023-01-28T10:10:11.547Z,4.60
2023-01-28T10:12:59.509Z,4.47
2023-01-28T10:15:49.885Z,7.13
2023-01-28T10:18:26.247Z,7.13
2023-01-28T10:21:03.376Z,5.90
2023-01-28T10:23:42.617Z,8.43
2023-01-28T10:26:21.546Z,6.00
2023-01-28T10:28:59.286Z,5.70
2023-01-28T10:31:34.912Z,9.00
2023-01-28T10:34:04.447Z,5.37
2023-01-28T10:36:35.193Z,10.40
2023-01-28T10:39:09.000Z,6.23
2023-01-28T10:41:45.371Z,7.97
2023-01-28T10:44:22.722Z,9.33
2023-01-28T10:46:54.460Z,9.43
2023-01-28T10:49:27.459Z,8.40
2023-01-28T10:51:56.525Z,6.07
2023-01-28T10:54:29.173Z,9.37
2023-01-28T10:57:03.034Z,6.13
2023-01-28T10:59:34.545Z,10.43
2023-01-28T11:02:06.294Z,7.27
2023-01-28T11:04:37.111Z,6.83
2023-01-28T11:07:15.608Z,8.40
2023-01-28T11:09:50.191Z,6.83
2023-01-28T11:12:23.200Z,7.97
2023-01-28T11:14:53.604Z,5.43
2023-01-28T11:17:25.683Z,7.57
2023-01-28T11:19:56.059Z,6.37
2023-01-28T11:22:33.465Z,5.20
2023-01-28T11:25:07.106Z,8.23
2023-01-28T11:27:36.360Z,6.93
2023-01-28T11:30:07.823Z,6.23
2023-01-28T11:32:36.929Z,6.53
2023-01-28T11:35:07.758Z,9.30
2023-01-28T11:37:37.863Z,8.30
2023-01-28T11:40:22.140Z,7.90
2023-01-28T11:42:52.972Z,11.40
2023-01-28T11:45:28.122Z,9.07
2023-01-28T11:48:20.144Z,5.13
2023-01-28T11:50:54.633Z,6.17
2023-01-28T11:53:40.407Z,8.90
2023-01-28T11:56:27.385Z,8.10
2023-01-28T11:59:10.699Z,6.43
2023-01-28T12:01:48.669Z,4.53
2023-01-28T12:04:37.545Z,8.57
2023-01-28T12:07:18.930Z,6.77
2023-01-28T12:09:57.744Z,9.20
2023-01-28T12:12:50.860Z,9.17
2023-01-28T12:15:52.211Z,6.47
2023-01-28T12:18:38.022Z,11.53
2023-01-28T12:21:10.914Z,8.63
2023-01-28T12:23:58.362Z,9.03
2023-01-28T12:26:38.203Z,8.67
2023-01-28T12:29:20.166Z,8.23
2023-01-28T12:32:14.273Z,7.73
2023-01-28T12:35:04.630Z,6.30
2023-01-28T12:37:49.101Z,12.33
2023-01-28T12:40:35.190Z,8.83
2023-01-28T12:43:07.964Z,6.93
2023-01-28T12:45:42.116Z,5.33
2023-01-28T12:48:17.093Z,8.90
2023-01-28T12:50:51.498Z,12.83
2023-01-28T12:53:27.408Z,10.83
2023-01-28T12:56:01.574Z,8.27
2023-01-28T12:58:41.500Z,7.57
2023-01-28T13:01:17.585Z,10.17
2023-01-28T13:03:54.369Z,9.27
2023-01-28T13:06:29.409Z,10.90
2023-01-28T13:09:02.174Z,9.27
2023-01-28T13:11:36.122Z,11.23
2023-01-28T13:14:06.759Z,8.60
2023-01-28T13:16:38.075Z,8.27
2023-01-28T13:19:10.334Z,10.43
2023-01-28T13:21:48.562Z,11.20
2023-01-28T13:24:31.700Z,11.40
2023-01-28T13:27:12.379Z,8.27
2023-01-28T13:29:41.436Z,8.70
2023-01-28T13:32:37.866Z,9.10
2023-01-28T13:35:10.389Z,12.43
2023-01-28T13:37:45.120Z,9.33
2023-01-28T13:40:27.392Z,10.37
2023-01-28T13:43:03.018Z,11.03
2023-01-28T13:45:32.407Z,10.00
2023-01-28T13:48:20.263Z,12.60
2023-01-28T13:50:53.284Z,14.67
2023-01-28T13:53:31.151Z,13.77
2023-01-28T13:56:01.016Z,11.03
2023-01-28T13:59:09.761Z,19.83
2023-01-28T14:02:11.247Z,12.57
2023-01-28T14:05:14.202Z,8.37
2023-01-28T14:08:20.825Z,15.60
2023-01-28T14:11:07.864Z,10.97
2023-01-28T14:14:12.719Z,12.60
2023-01-28T14:16:53.778Z,14.33
2023-01-28T14:19:29.978Z,11.53
2023-01-28T14:21:59.398Z,11.97
2023-01-28T14:24:29.968Z,12.60
2023-01-28T14:27:06.067Z,10.17
2023-01-28T14:29:45.604Z,13.90
2023-01-28T14:32:18.006Z,14.80
2023-01-28T14:34:48.879Z,14.27
2023-01-28T14:37:21.512Z,13.07
2023-01-28T14:39:57.389Z,16.70
2023-01-28T14:42:29.443Z,14.60
2023-01-28T14:45:10.448Z,13.07
2023-01-28T14:47:58.453Z,13.37
2023-01-28T14:50:45.516Z,13.23
2023-01-28T14:53:43.902Z,12.33
2023-01-28T14:56:28.998Z,14.17
2023-01-28T14:59:03.910Z,11.37
2023-01-28T15:01:33.771Z,16.23
2023-01-28T15:04:02.814Z,11.83
2023-01-28T15:06:36.464Z,11.63
2023-01-28T15:09:10.602Z,14.00
2023-01-28T15:11:44.526Z,12.43
2023-01-28T15:14:21.004Z,12.77
2023-01-28T15:16:51.507Z,15.77
2023-01-28T15:19:27.653Z,13.13
2023-01-28T15:21:58.586Z,11.67
2023-01-28T15:24:28.088Z,11.70
2023-01-28T15:26:59.742Z,13.70
2023-01-28T15:29:35.282Z,11.03
2023-01-28T15:32:05.454Z,21.20
2023-01-28T15:34:34.518Z,13.50
2023-01-28T15:37:03.878Z,13.10
2023-01-28T15:39:32.968Z,17.60
2023-01-28T15:42:08.203Z,13.67
2023-01-28T15:44:40.345Z,13.00
2023-01-28T15:47:18.786Z,10.60
2023-01-28T15:49:51.353Z,11.57
2023-01-28T15:52:22.565Z,11.97
2023-01-28T15:54:53.837Z,13.17
2023-01-28T15:57:31.014Z,15.93
2023-01-28T16:00:13.595Z,11.90
2023-01-28T16:02:47.451Z,16.20
2023-01-28T16:05:33.540Z,12.93
2023-01-28T16:08:09.826Z,11.67
2023-01-28T16:10:39.458Z,13.60
2023-01-28T16:13:20.834Z,13.83
2023-01-28T16:15:54.660Z,24.63
2023-01-28T16:18:31.787Z,15.57
2023-01-28T16:21:02.087Z,17.97
2023-01-28T16:23:32.037Z,19.50
2023-01-28T16:26:02.473Z,18.77
2023-01-28T16:28:33.243Z,15.07
2023-01-28T16:31:02.415Z,16.97
2023-01-28T16:33:31.636Z,20.23
2023-01-28T16:36:08.930Z,15.80
2023-01-28T16:38:38.331Z,15.93
2023-01-28T16:41:13.390Z,12.60
2023-01-28T16:43:44.361Z,18.40
2023-01-28T16:46:14.984Z,13.77
2023-01-28T16:48:44.491Z,17.30
2023-01-28T16:51:18.588Z,12.53
2023-01-28T16:53:50.274Z,26.63
2023-01-28T16:56:43.955Z,15.73
2023-01-28T16:59:13.739Z,11.47
2023-01-28T17:01:43.866Z,13.70
2023-01-28T17:04:13.881Z,18.43
2023-01-28T17:06:45.545Z,15.07
2023-01-28T17:09:16.087Z,16.40
2023-01-28T17:11:45.639Z,14.30
2023-01-28T17:14:16.057Z,11.93
2023-01-28T17:16:45.263Z,13.57
2023-01-28T17:19:14.542Z,14.27
2023-01-28T17:21:43.979Z,13.57
2023-01-28T17:24:13.026Z,13.60
2023-01-28T17:26:42.154Z,12.17
2023-01-28T17:29:11.420Z,13.47
2023-01-28T17:31:42.464Z,17.87
2023-01-28T17:34:12.379Z,13.57
2023-01-28T17:36:41.485Z,20.33
2023-01-28T17:39:10.514Z,16.47
2023-01-28T17:41:39.805Z,19.23
2023-01-28T17:44:12.191Z,15.27
2023-01-28T17:46:42.844Z,20.20
2023-01-28T17:49:12.007Z,13.80
2023-01-28T17:51:41.387Z,15.80
2023-01-28T17:54:11.798Z,23.13
2023-01-28T17:56:41.399Z,15.40
2023-01-28T17:59:11.739Z,21.53
2023-01-28T18:01:44.509Z,18.60
2023-01-28T18:04:16.809Z,16.40
2023-01-28T18:06:47.249Z,18.00
2023-01-28T18:09:16.648Z,18.43
2023-01-28T18:11:45.770Z,16.03
2023-01-28T18:14:15.467Z,18.73
2023-01-28T18:16:45.921Z,15.97
2023-01-28T18:19:15.455Z,17.23
2023-01-28T18:21:53.012Z,18.03
2023-01-28T18:24:24.867Z,21.03
2023-01-28T18:26:58.055Z,18.43
2023-01-28T18:29:27.507Z,17.23
2023-01-28T18:31:59.661Z,14.60
2023-01-28T18:34:31.765Z,18.50
2023-01-28T18:37:03.432Z,19.37
2023-01-28T18:39:33.534Z,13.17
2023-01-28T18:42:05.748Z,15.27
2023-01-28T18:44:34.858Z,15.40
2023-01-28T18:47:05.374Z,15.60
2023-01-28T18:49:35.589Z,18.30
2023-01-28T18:52:04.831Z,16.13
2023-01-28T18:54:34.110Z,19.00
2023-01-28T18:57:03.517Z,20.17
2023-01-28T18:59:32.690Z,14.90
2023-01-28T19:02:05.443Z,19.10
2023-01-28T19:04:36.880Z,12.47
2023-01-28T19:07:08.132Z,18.47
2023-01-28T19:09:37.931Z,13.83
2023-01-28T19:12:07.462Z,16.47
2023-01-28T19:14:36.784Z,19.87
2023-01-28T19:17:08.303Z,16.77
2023-01-28T19:19:37.589Z,15.83
2023-01-28T19:22:07.177Z,17.67
2023-01-28T19:24:36.856Z,15.30
2023-01-28T19:27:06.235Z,13.43
2023-01-28T19:29:35.960Z,17.43
2023-01-28T19:32:06.761Z,18.53
2023-01-28T19:34:36.624Z,18.10
2023-01-28T19:37:08.454Z,16.47
2023-01-28T19:39:37.791Z,21.47
2023-01-28T19:42:10.375Z,16.43
2023-01-28T19:44:42.540Z,24.63
2023-01-28T19:47:16.764Z,14.20
2023-01-28T19:49:46.213Z,16.70
2023-01-28T19:52:15.358Z,13.13
2023-01-28T19:54:49.475Z,13.73
2023-01-28T19:57:19.284Z,16.37
2023-01-28T19:59:51.211Z,16.93
2023-01-28T20:02:22.119Z,17.00
2023-01-28T20:05:00.561Z,17.87
2023-01-28T20:07:30.344Z,17.23
2023-01-28T20:10:00.056Z,15.57
2023-01-28T20:12:29.863Z,18.07
2023-01-28T20:14:59.196Z,16.47
2023-01-28T20:17:31.694Z,15.70
2023-01-28T20:20:01.126Z,19.63
2023-01-28T20:22:30.324Z,16.77
2023-01-28T20:25:05.417Z,18.00
2023-01-28T20:27:34.738Z,17.70
2023-01-28T20:30:07.047Z,18.00
2023-01-28T20:32:37.649Z,17.73
2023-01-28T20:35:10.283Z,18.67
2023-01-28T20:37:44.627Z,17.73
2023-01-28T20:40:18.174Z,20.20
2023-01-28T20:42:50.797Z,12.77
2023-01-28T20:45:20.321Z,22.37
2023-01-28T20:47:51.330Z,20.00
2023-01-28T20:50:20.797Z,28.13
2023-01-28T20:52:50.482Z,17.40
2023-01-28T20:55:19.687Z,21.00
2023-01-28T20:57:49.173Z,15.97
2023-01-28T21:00:21.816Z,13.37
2023-01-28T21:02:52.595Z,16.90
2023-01-28T21:05:22.172Z,17.90
2023-01-28T21:07:53.333Z,17.73
2023-01-28T21:10:22.939Z,18.07
2023-01-28T21:12:55.320Z,14.20
2023-01-28T21:15:24.821Z,17.03
2023-01-28T21:17:55.584Z,16.23
2023-01-28T21:20:25.579Z,17.30
2023-01-28T21:22:56.943Z,18.57
2023-01-28T21:25:26.967Z,17.30
2023-01-28T21:27:56.071Z,20.67
2023-01-28T21:30:28.103Z,15.27
2023-01-28T21:32:59.983Z,20.70
2023-01-28T21:35:32.301Z,15.23
2023-01-28T21:38:01.889Z,18.77
2023-01-28T21:40:34.490Z,17.10
2023-01-28T21:43:04.727Z,15.67
2023-01-28T21:45:34.224Z,17.83
2023-01-28T21:48:04.932Z,20.40
2023-01-28T21:50:57.561Z,21.23
2023-01-28T21:53:31.965Z,17.80
2023-01-28T21:56:01.101Z,20.83
2023-01-28T21:58:47.944Z,18.23
2023-01-28T22:01:17.474Z,18.83
2023-01-28T22:03:48.256Z,19.13
2023-01-28T22:06:17.682Z,20.47
2023-01-28T22:08:52.328Z,21.33
2023-01-28T22:11:24.819Z,21.27
2023-01-28T22:13:57.618Z,17.53
2023-01-28T22:16:27.001Z,23.80
2023-01-28T22:18:58.580Z,17.90
2023-01-28T22:21:27.927Z,19.20
2023-01-28T22:23:58.538Z,18.50
2023-01-28T22:26:28.427Z,20.00
2023-01-28T22:29:00.138Z,17.23
2023-01-28T22:31:29.540Z,17.20
2023-01-28T22:34:05.516Z,21.57
2023-01-28T22:36:35.494Z,23.27
2023-01-28T22:39:07.360Z,12.23
2023-01-28T22:41:39.731Z,20.60
2023-01-28T22:44:09.613Z,24.77
2023-01-28T22:46:39.474Z,22.80
2023-01-28T22:49:11.378Z,17.53
2023-01-28T22:51:40.439Z,18.63
2023-01-28T22:54:10.357Z,16.67
2023-01-28T22:56:40.151Z,18.70
2023-01-28T22:59:09.178Z,19.77
2023-01-28T23:01:38.227Z,19.13
2023-01-28T23:04:08.740Z,16.77
2023-01-28T23:06:38.142Z,19.30
2023-01-28T23:09:07.292Z,16.67
2023-01-28T23:11:36.450Z,17.73
2023-01-28T23:14:23.683Z,19.30
2023-01-28T23:17:10.349Z,20.43
2023-01-28T23:19:58.085Z,17.63
2023-01-28T23:22:50.834Z,18.17
2023-01-28T23:25:20.636Z,17.80
2023-01-28T23:27:49.686Z,18.37
2023-01-28T23:30:24.893Z,15.03
2023-01-28T23:32:57.930Z,18.07
2023-01-28T23:35:30.828Z,18.53
2023-01-28T23:37:59.934Z,19.97
2023-01-28T23:40:28.981Z,20.93
2023-01-28T23:42:58.684Z,19.00
2023-01-28T23:45:27.773Z,18.97
2023-01-28T23:47:56.751Z,18.97
2023-01-28T23:50:27.084Z,23.17
2023-01-28T23:52:56.146Z,24.50
2023-01-28T23:55:25.148Z,19.17
2023-01-28T23:57:54.201Z,17.40
